Time;durP1;ratioP1;P1;durP2;ratioP2;P2;SDS_P1;SDS_P2;PMS_P1;PMS_P2;Temp;Humidity;BMP_temperature;BMP_pressure;BME280_temperature;BME280_humidity;BME280_pressure;Samples;Min_cycle;Max_cycle;Signal;HPM_P1;HPM_P2
2023/01/21 01:46:13;607135.00;2.02;1046.54;0.00;0.00;0.62;;;;;6.90;1.00;;;;;;2271077;61;995;-90
2023/01/21 01:48:42;278381.00;0.93;480.75;0.00;0.00;0.62;;;;;7.00;1.00;;;;;;2269105;61;2008;-90
2023/01/21 01:51:10;491853.00;1.64;847.80;0.00;0.00;0.62;;;;;7.10;1.00;;;;;;2268943;61;1582;-89
2023/01/21 02:06:15;926855.00;3.09;1603.34;51258.00;0.17;89.36;;;;;6.90;1.00;;;;;;2270983;61;1024;-90
2023/01/21 02:08:44;299144.00;1.00;516.45;0.00;0.00;0.62;;;;;7.30;1.00;;;;;;2269096;61;1931;-91
2023/01/21 02:14:11;2114304.00;7.05;3861.73;101101.00;0.34;175.47;;;;;7.80;1.00;;;;;;2267889;61;1313;-88
2023/01/21 04:47:41;891424.00;2.97;1541.06;40347.00;0.13;70.49;;;;;7.30;1.00;;;;;;2270642;61;1329;-92
2023/01/21 04:50:09;229909.00;0.77;397.39;0.00;0.00;0.62;;;;;7.00;1.00;;;;;;2268546;61;1938;-90
2023/01/21 04:52:36;446516.00;1.49;769.79;0.00;0.00;0.62;;;;;6.70;1.00;;;;;;2267934;61;1292;-91
2023/01/21 04:55:03;195375.00;0.65;337.96;0.00;0.00;0.62;;;;;6.40;1.00;;;;;;2264617;61;1028;-88
2023/01/21 05:22:38;1068168.00;3.56;1853.59;105916.00;0.35;183.78;;;;;4.10;1.00;;;;;;827324;56;3597;-88
2023/01/21 06:15:28;813709.00;2.71;1405.04;0.00;0.00;0.62;;;;;5.60;1.00;;;;;;2266606;61;1001;-89
2023/01/21 06:40:36;2348011.00;7.83;4365.12;226067.00;0.75;390.78;;;;;1.60;1.00;;;;;;2297462;56;3591;-88
2023/01/21 07:28:24;1061526.00;3.54;1841.75;0.00;0.00;0.62;;;;;0.60;1.00;;;;;;2270422;61;1877;-88
2023/01/21 07:30:51;516644.00;1.72;890.48;0.00;0.00;0.62;;;;;0.50;1.00;;;;;;2268879;61;1436;-89
2023/01/21 07:33:18;491502.00;1.64;847.19;0.00;0.00;0.62;;;;;0.80;1.00;;;;;;2266742;61;1661;-89
2023/01/21 07:38:15;944762.00;3.15;1634.88;0.00;0.00;0.62;;;;;0.80;1.00;;;;;;2270420;61;1310;-88
2023/01/21 08:03:27;1174935.00;3.92;2044.97;98991.00;0.33;171.83;;;;;0.80;1.00;;;;;;2277617;56;3615;-89
2023/01/21 08:05:55;690760.00;2.30;1191.22;0.00;0.00;0.62;;;;;0.70;1.00;;;;;;2302748;40;3797;-88
2023/01/21 08:49:05;1826458.00;6.09;3273.86;141210.00;0.47;244.66;;;;;0.50;1.00;;;;;;2407195;40;3505;31
2023/01/21 10:12:32;767833.00;2.56;1325.08;0.00;0.00;0.62;;;;;2.30;1.00;;;;;;2270469;61;1344;-88
2023/01/21 12:53:16;1443460.00;4.81;2537.17;101407.00;0.34;176.00;;;;;3.00;1.00;;;;;;2269792;61;1377;-90
2023/01/21 12:56:06;146536784.00;488.46;127541704.00;0.00;0.00;0.62;;;;;2.50;1.00;;;;;;2265037;61;1718;-92
2023/01/21 12:58:47;547035.00;1.82;942.85;0.00;0.00;0.62;;;;;2.30;1.00;;;;;;2264961;61;970;-91
2023/01/21 13:01:22;437554.00;1.46;754.38;0.00;0.00;0.62;;;;;2.20;1.00;;;;;;2265094;61;1738;-89
2023/01/21 13:18:59;122144784.00;407.15;73824496.00;196211.00;0.65;339.40;;;;;2.20;1.00;;;;;;2273133;56;3660;-88
2023/01/21 13:49:36;126694912.00;422.32;82394536.00;181997.00;0.61;314.93;;;;;1.40;1.00;;;;;;2270495;61;1947;-90
2023/01/21 14:05:03;1171653.00;3.91;2039.05;0.00;0.00;0.62;;;;;0.90;1.00;;;;;;2270875;61;975;-88
2023/01/21 18:04:44;1115939.00;3.72;1938.95;0.00;0.00;0.62;;;;;1.60;1.00;;;;;;2497536;56;3558;31
2023/01/21 18:12:11;825603.00;2.75;1425.81;0.00;0.00;0.62;;;;;1.80;1.00;;;;;;2271001;61;1305;-89
2023/01/21 18:17:19;848779.00;2.83;1466.33;0.00;0.00;0.62;;;;;2.30;2.00;;;;;;2271051;61;1314;-89
2023/01/21 18:19:47;432657.00;1.44;745.95;0.00;0.00;0.62;;;;;2.10;1.00;;;;;;2268870;61;1252;-90
2023/01/21 18:24:48;1150200.00;3.83;2000.44;0.00;0.00;0.62;;;;;1.70;1.00;;;;;;2266956;61;1513;-89
2023/01/21 18:34:47;1262715.00;4.21;2204.03;45233.00;0.15;78.94;;;;;1.10;1.00;;;;;;2266718;61;975;-91
2023/01/21 18:42:22;957462.00;3.19;1657.27;0.00;0.00;0.62;;;;;1.40;1.00;;;;;;2270875;61;1352;-89
2023/01/21 19:39:24;1840696.00;6.14;3302.19;134018.00;0.45;232.26;;;;;1.80;1.00;;;;;;1604699;41;3584;-89
2023/01/21 19:41:53;1666528.00;5.56;2960.57;88541.00;0.30;153.79;;;;;2.10;1.00;;;;;;2264337;61;1056;-89
2023/01/21 19:44:20;1894066.00;6.31;3409.03;166712.00;0.56;288.60;;;;;2.30;1.00;;;;;;2260503;61;1404;-88
2023/01/21 19:46:46;1086076.00;3.62;1885.54;109380.00;0.36;189.76;;;;;2.10;1.00;;;;;;2260159;61;1415;-87
2023/01/21 19:49:15;1058577.00;3.53;1836.50;113606.00;0.38;197.05;;;;;2.00;1.00;;;;;;2260022;61;2319;-87
2023/01/21 19:51:43;429693.00;1.43;740.86;69687.00;0.23;121.22;;;;;2.20;1.00;;;;;;2260298;61;1153;-88
2023/01/21 19:54:10;321060.00;1.07;554.12;0.00;0.00;0.62;;;;;2.00;1.00;;;;;;2260297;61;1417;-88
2023/01/21 19:56:38;424497.00;1.41;731.92;42767.00;0.14;74.68;;;;;2.20;1.00;;;;;;2260297;61;1015;-88
2023/01/21 19:59:06;472021.00;1.57;813.67;33622.00;0.11;58.85;;;;;2.50;1.00;;;;;;2260053;61;1028;-88
2023/01/21 20:01:33;285194.00;0.95;492.47;0.00;0.00;0.62;;;;;2.20;1.00;;;;;;2260005;61;1015;-88
2023/01/21 20:04:00;416339.00;1.39;717.90;0.00;0.00;0.62;;;;;2.40;1.00;;;;;;2260164;61;1387;-88
2023/01/21 20:06:29;369674.00;1.23;637.68;31339.00;0.10;54.90;;;;;2.40;1.00;;;;;;2260231;61;1061;-87
2023/01/21 20:08:58;121679.00;0.41;210.98;0.00;0.00;0.62;;;;;2.70;1.00;;;;;;2260204;61;1076;-88
2023/01/21 20:11:25;448021.00;1.49;772.38;0.00;0.00;0.62;;;;;3.10;1.00;;;;;;2260105;61;1999;-88
2023/01/21 20:13:54;248548.00;0.83;429.45;0.00;0.00;0.62;;;;;2.90;1.00;;;;;;2260178;61;1373;-88
2023/01/21 20:16:22;553369.00;1.84;953.77;0.00;0.00;0.62;;;;;2.40;1.00;;;;;;2260066;61;1118;-88
2023/01/21 20:18:49;494210.00;1.65;851.86;0.00;0.00;0.62;;;;;2.40;1.00;;;;;;2260170;61;1171;-87
2023/01/21 20:21:17;357636.00;1.19;616.99;15683.00;0.05;27.79;;;;;2.10;1.00;;;;;;2259903;61;1110;-88
2023/01/21 20:23:43;644226.00;2.15;1110.65;0.00;0.00;0.62;;;;;2.00;1.00;;;;;;2281587;41;3752;-87
2023/01/21 20:26:16;284796.00;0.95;491.78;0.00;0.00;0.62;;;;;2.10;1.00;;;;;;2260142;61;1028;-88
2023/01/21 20:28:49;424754.00;1.42;732.36;25316.00;0.08;44.47;;;;;2.40;1.00;;;;;;2260148;61;1417;-89
2023/01/21 20:31:19;448915.00;1.50;773.92;0.00;0.00;0.62;;;;;2.60;1.00;;;;;;2259925;61;2001;-89
2023/01/21 20:33:48;622609.00;2.08;1073.27;0.00;0.00;0.62;;;;;2.50;1.00;;;;;;2266720;55;3839;-88
2023/01/21 20:36:19;1931597.00;6.44;3484.80;117078.00;0.39;203.04;;;;;2.80;1.00;;;;;;2264147;61;1131;-88
2023/01/21 20:38:47;1508519.00;5.03;2659.16;133292.00;0.44;231.01;;;;;2.60;1.00;;;;;;2264149;61;2308;-89
2023/01/21 20:41:13;1835898.00;6.12;3292.63;87083.00;0.29;151.27;;;;;2.50;1.00;;;;;;2264171;61;1098;-89
2023/01/21 20:43:41;1867800.00;6.23;3356.31;114192.00;0.38;198.06;;;;;2.50;1.00;;;;;;2261434;61;1349;-87
2023/01/21 20:46:14;1208634.00;4.03;2105.84;72570.00;0.24;126.20;;;;;2.10;1.00;;;;;;2260301;61;1086;-88
2023/01/21 20:48:44;723719.00;2.41;1248.39;74020.00;0.25;128.71;;;;;1.90;1.00;;;;;;2260811;61;1014;-88
2023/01/21 20:51:11;700303.00;2.33;1207.76;103309.00;0.34;179.28;;;;;1.90;1.00;;;;;;2260710;61;1919;-87
2023/01/21 20:53:39;497292.00;1.66;857.16;114150.00;0.38;197.99;;;;;2.00;1.00;;;;;;2260799;61;1312;-89
2023/01/21 20:56:25;260823.00;0.87;450.56;0.00;0.00;0.62;;;;;2.00;1.00;;;;;;2260788;61;1111;-88
2023/01/21 20:58:52;583712.00;1.95;1006.10;81157.00;0.27;141.04;;;;;1.90;1.00;;;;;;2260818;61;1090;-88
2023/01/21 21:01:20;449154.00;1.50;774.33;0.00;0.00;0.62;;;;;1.70;1.00;;;;;;2260569;61;1078;-88
2023/01/21 21:03:49;555030.00;1.85;956.63;0.00;0.00;0.62;;;;;1.80;1.00;;;;;;2260766;61;1324;-88
2023/01/21 21:06:18;531671.00;1.77;916.37;0.00;0.00;0.62;;;;;1.60;1.00;;;;;;2260611;61;1005;-87
2023/01/21 21:08:46;688682.00;2.30;1187.62;31397.00;0.10;55.00;;;;;1.70;1.00;;;;;;2260665;61;899;-88
2023/01/21 21:11:14;316991.00;1.06;547.13;0.00;0.00;0.62;;;;;1.90;1.00;;;;;;2260656;61;2012;-87
2023/01/21 21:13:46;500289.00;1.67;862.32;0.00;0.00;0.62;;;;;2.20;1.00;;;;;;2260553;61;1620;-87
2023/01/21 21:16:18;324287.00;1.08;559.67;0.00;0.00;0.62;;;;;1.90;1.00;;;;;;2260721;61;1035;-89
2023/01/21 21:18:46;305892.00;1.02;528.05;0.00;0.00;0.62;;;;;1.60;1.00;;;;;;2260764;61;1062;-87
2023/01/21 21:21:15;308494.00;1.03;532.52;0.00;0.00;0.62;;;;;1.70;1.00;;;;;;2260763;61;2493;-87
2023/01/21 21:23:45;357958.00;1.19;617.54;0.00;0.00;0.62;;;;;1.80;1.00;;;;;;2260654;61;1365;-86
2023/01/21 21:26:17;238150.00;0.79;411.57;0.00;0.00;0.62;;;;;2.30;1.00;;;;;;2260767;61;1036;-86
2023/01/21 21:28:44;316510.00;1.06;546.30;0.00;0.00;0.62;;;;;2.10;1.00;;;;;;2260752;61;1040;-87
2023/01/21 21:31:14;426033.00;1.42;734.56;0.00;0.00;0.62;;;;;2.00;1.00;;;;;;2260574;61;1912;-86
2023/01/21 21:33:41;119655376.00;398.85;69398096.00;0.00;0.00;0.62;;;;;2.00;1.00;;;;;;2260447;61;1397;-88
2023/01/21 21:36:15;423885.00;1.41;730.87;20820.00;0.07;36.69;;;;;2.00;1.00;;;;;;2260714;61;1198;-90
2023/01/21 21:38:42;248568.00;0.83;429.49;0.00;0.00;0.62;;;;;2.40;1.00;;;;;;2260673;61;1144;-88
2023/01/21 21:43:59;360414.00;1.20;621.76;0.00;0.00;0.62;;;;;2.20;1.00;;;;;;2260528;61;1442;-87
2023/01/21 21:49:11;151379.00;0.50;262.18;0.00;0.00;0.62;;;;;2.30;1.00;;;;;;2260590;61;693;-87
2023/01/21 21:51:39;1355852.00;4.52;2374.69;25781.00;0.09;45.28;;;;;2.50;1.00;;;;;;2260480;61;1915;-87
2023/01/21 21:54:09;1706967.00;5.69;3038.97;40839.00;0.14;71.34;;;;;2.60;1.00;;;;;;2260363;61;1499;-89
2023/01/21 21:56:36;1487671.00;4.96;2619.94;143865.00;0.48;249.23;;;;;2.70;1.00;;;;;;2260615;61;1080;-89
2023/01/21 21:59:04;1484575.00;4.95;2614.13;154739.00;0.52;267.97;;;;;3.00;1.00;;;;;;2260563;61;1071;-88
2023/01/21 22:01:33;981829.00;3.27;1700.32;158411.00;0.53;274.30;;;;;2.90;1.00;;;;;;2260681;61;1047;-89
2023/01/21 22:04:00;804423.00;2.68;1388.84;102721.00;0.34;178.27;;;;;2.90;1.00;;;;;;2260569;61;1589;-88
2023/01/21 22:06:27;646594.00;2.16;1114.74;94087.00;0.31;163.36;;;;;3.00;1.00;;;;;;2260556;61;1648;-87
2023/01/21 22:08:57;540186.00;1.80;931.04;103917.00;0.35;180.33;;;;;3.10;1.00;;;;;;2260457;61;1584;-87
2023/01/21 22:11:26;469017.00;1.56;808.50;106172.00;0.35;184.22;;;;;3.30;1.00;;;;;;2260398;61;1982;-88
2023/01/21 22:13:55;469427.00;1.56;809.20;21169.00;0.07;37.29;;;;;3.60;1.00;;;;;;2260527;61;1407;-87
2023/01/21 22:16:24;251708.00;0.84;434.89;0.00;0.00;0.62;;;;;3.90;1.00;;;;;;2260487;61;1002;-87
2023/01/21 22:18:51;396381.00;1.32;683.58;0.00;0.00;0.62;;;;;3.90;1.00;;;;;;2260512;61;940;-87
2023/01/21 22:21:20;265652.00;0.89;458.87;0.00;0.00;0.62;;;;;4.20;1.00;;;;;;2260516;61;1077;-88
2023/01/21 22:23:48;256119.00;0.85;442.47;0.00;0.00;0.62;;;;;4.40;1.00;;;;;;2260513;61;2533;-87
2023/01/21 22:26:18;208832.00;0.70;361.13;0.00;0.00;0.62;;;;;4.40;1.00;;;;;;2260203;61;1591;-87
2023/01/21 22:28:46;341061.00;1.14;588.50;0.00;0.00;0.62;;;;;4.50;1.00;;;;;;2260505;61;1452;-89
2023/01/21 22:31:14;411654.00;1.37;709.84;0.00;0.00;0.62;;;;;4.60;1.00;;;;;;2260366;61;1911;-87
2023/01/21 22:33:41;335756.00;1.12;579.38;0.00;0.00;0.62;;;;;4.50;1.00;;;;;;2260315;61;1482;-88
2023/01/21 22:36:11;185282.00;0.62;320.59;0.00;0.00;0.62;;;;;4.40;1.00;;;;;;2260476;61;1033;-87
2023/01/21 22:38:39;454653.00;1.52;783.79;0.00;0.00;0.62;;;;;4.40;1.00;;;;;;2260318;61;1115;-88
2023/01/21 22:41:06;209105.00;0.70;361.60;0.00;0.00;0.62;;;;;4.60;1.00;;;;;;2260489;61;1056;-87
2023/01/21 22:43:35;249630.00;0.83;431.31;0.00;0.00;0.62;;;;;4.50;1.00;;;;;;2260377;61;1453;-87
2023/01/21 22:46:02;292766.00;0.98;505.48;0.00;0.00;0.62;;;;;4.70;1.00;;;;;;2260495;61;1045;-89
2023/01/21 22:48:32;117334992.00;391.12;65435068.00;0.00;0.00;0.62;;;;;4.70;1.00;;;;;;2260477;61;1027;-88
2023/01/21 22:51:00;347085.00;1.16;598.85;0.00;0.00;0.62;;;;;4.60;1.00;;;;;;2260008;61;2070;-88
2023/01/21 22:53:28;424995.00;1.42;732.78;0.00;0.00;0.62;;;;;4.70;1.00;;;;;;2260428;61;1455;-89
2023/01/21 22:55:56;148364.00;0.49;256.99;0.00;0.00;0.62;;;;;4.90;1.00;;;;;;2260338;61;1438;-87
2023/01/21 22:58:24;332834.00;1.11;574.36;0.00;0.00;0.62;;;;;4.80;1.00;;;;;;2260241;61;1500;-88
2023/01/21 23:00:53;383586.00;1.28;661.59;0.00;0.00;0.62;;;;;4.80;1.00;;;;;;2260345;61;1681;-88
2023/01/21 23:05:48;483362.00;1.61;833.18;0.00;0.00;0.62;;;;;4.90;1.00;;;;;;2261661;61;1417;-88
2023/01/21 23:08:15;1504543.00;5.02;2651.67;73729.00;0.25;128.20;;;;;4.80;1.00;;;;;;2260189;61;984;-88
2023/01/21 23:10:43;2017371.00;6.72;3660.05;96626.00;0.32;167.75;;;;;5.40;1.00;;;;;;2260133;61;1998;-89
2023/01/21 23:13:10;1301914.00;4.34;2275.61;186875.00;0.62;323.33;;;;;6.00;1.00;;;;;;2260319;61;1423;-89
2023/01/21 23:15:42;573690.00;1.91;988.81;97377.00;0.32;169.04;;;;;6.20;1.00;;;;;;2260378;61;2205;-88
2023/01/21 23:18:10;556901.00;1.86;959.86;102066.00;0.34;177.14;;;;;6.50;1.00;;;;;;2260287;61;1052;-88
2023/01/21 23:20:37;627139.00;2.09;1081.10;100372.00;0.33;174.21;;;;;6.20;1.00;;;;;;2260257;61;1423;-89
2023/01/21 23:23:05;600371.00;2.00;1034.86;80261.00;0.27;139.49;;;;;6.10;1.00;;;;;;2260274;61;1318;-89
2023/01/21 23:25:32;401610.00;1.34;692.57;95482.00;0.32;165.77;;;;;5.90;1.00;;;;;;2260244;61;1485;-89
2023/01/21 23:27:58;289123.00;0.96;499.22;0.00;0.00;0.62;;;;;5.70;1.00;;;;;;2265181;40;3637;-89
2023/01/21 23:30:25;121159.00;0.40;210.08;0.00;0.00;0.62;;;;;5.90;1.00;;;;;;2264241;61;1910;-89
2023/01/21 23:32:52;213206.00;0.71;368.65;0.00;0.00;0.62;;;;;5.90;1.00;;;;;;2263111;61;1404;-89
2023/01/21 23:35:21;182794.00;0.61;316.30;0.00;0.00;0.62;;;;;5.60;1.00;;;;;;2260142;61;1070;-89
2023/01/21 23:37:48;350684.00;1.17;605.04;0.00;0.00;0.62;;;;;5.20;1.00;;;;;;2260263;61;1036;-88
2023/01/21 23:42:42;304176.00;1.01;525.10;0.00;0.00;0.62;;;;;5.10;1.00;;;;;;2265989;61;1336;-87
2023/01/21 23:45:10;255226.00;0.85;440.94;0.00;0.00;0.62;;;;;5.00;1.00;;;;;;2260871;61;1014;-89
2023/01/21 23:47:37;130802.00;0.44;226.71;0.00;0.00;0.62;;;;;5.40;1.00;;;;;;2260865;61;1067;-89
2023/01/21 23:50:07;239126.00;0.80;413.25;0.00;0.00;0.62;;;;;5.40;1.00;;;;;;2260896;61;833;-90
2023/01/21 23:52:35;167780.00;0.56;290.44;0.00;0.00;0.62;;;;;5.40;1.00;;;;;;2260119;61;1940;-89
2023/01/21 23:55:03;260090.00;0.87;449.30;0.00;0.00;0.62;;;;;6.00;1.00;;;;;;2260234;61;916;-89
2023/01/21 23:57:29;117658504.00;392.20;65978292.00;16931.00;0.06;29.96;;;;;6.40;1.00;;;;;;2260127;61;1602;-89
2023/01/21 23:59:56;208343.00;0.69;360.28;0.00;0.00;0.62;;;;;6.10;1.00;;;;;;2260088;61;1227;-89
